Aérodrome :
LOGIN :

S'inscrire | Disclaimer

   EN    FR    IT 

 










Légende :    VFR   VFR Marginal   IFR   IFR Intensif   IFR Très Intensif
Visi : 
Plafond : 
>= 8 km
>= 3000ft
5 à 8 km
1000 à 3000 ft
1500m à 5 km
500 à 1000 ft
800 à 1500m
200 à 500 ft
< 800m
< 200 ft
Symboles :   Orages  Brouillard  Fortes neiges  Fortes précipitations  Vent > 20 kt
SIGMETs :   Divers  Orages  Givrage  Turbulence  Onde Orograph.  Cendres Volcan.







- Altitude de l'aérodrome : 2595 ft
- Code IATA : SLM


LESA - Salamanca Matacan

DERNIER METAR :
  • 140800Z 25016KT 9999 BKN008 OVC028 10/09 Q1021

METARs EXPIRÉS :
  • 140730Z 24015KT 5000 BR OVC009 09/09 Q1021
  • 140700Z 25015KT 4000 BR OVC006 09/08 Q1021
  • 140630Z 25013KT 4000 -DZ OVC006 09/08 Q1022
  • 140600Z 25014KT 4000 -DZ OVC007 09/08 Q1021

TAF TAF LESA
Valide du 14 à 06h jusqu'au 15 à 06h UTC


140500Z 1406/1506 25013KT 9999 FEW002 BKN004 TX11/1415Z TN06/1506Z
PROB30
TEMPO 1406/1410 3000 BR BKN001
PROB30
TEMPO 1406/1410 0200 FG FEW001
TEMPO 1413/1424 RA
TEMPO 1501/1503 OVC011
BECMG 1504/1506 SCT014
Pas de NOTAMs connus pour ce terrain.



MET'MAP, la Météo Aéronautique d'un coup d'oeil ! - Copyright ORBIFLY Décembre 2007 - Disclaimer

ORBIFLY MET'MAP TEAM :

Programmation & Développement : Alexandra Zaïnal
Conception & Développement : Baudouin d'Aumeries
Co-Programmation & Développement : Marc-Olivier Méhu
Soutien technique & logistique : Manuel Goepfert

Contact : metmap@orbifly.com




SOURCES & CREDITS :

   NOAA